sensor_id;sensor_type;location;lat;lon;timestamp;P1;durP1;ratioP1;P2;durP2;ratioP2
51244;SDS011;37840;47.562;18.738;2023-08-31T00:01:09;3.85;;;3.42;;
51244;SDS011;37840;47.562;18.738;2023-08-31T00:03:35;3.67;;;3.08;;
51244;SDS011;37840;47.562;18.738;2023-08-31T00:06:01;3.50;;;3.20;;
51244;SDS011;37840;47.562;18.738;2023-08-31T00:08:29;3.55;;;3.20;;
51244;SDS011;37840;47.562;18.738;2023-08-31T00:10:59;3.58;;;3.28;;
51244;SDS011;37840;47.562;18.738;2023-08-31T00:13:26;3.63;;;3.20;;
51244;SDS011;37840;47.562;18.738;2023-08-31T00:15:55;4.45;;;3.22;;
51244;SDS011;37840;47.562;18.738;2023-08-31T00:18:23;4.70;;;3.37;;
51244;SDS011;37840;47.562;18.738;2023-08-31T00:20:50;4.30;;;3.30;;
51244;SDS011;37840;47.562;18.738;2023-08-31T00:23:16;4.37;;;3.30;;
51244;SDS011;37840;47.562;18.738;2023-08-31T00:25:43;4.15;;;3.55;;
51244;SDS011;37840;47.562;18.738;2023-08-31T00:28:09;3.65;;;3.35;;
51244;SDS011;37840;47.562;18.738;2023-08-31T00:30:35;4.43;;;3.17;;
51244;SDS011;37840;47.562;18.738;2023-08-31T00:33:01;4.07;;;3.37;;
51244;SDS011;37840;47.562;18.738;2023-08-31T00:35:27;4.78;;;3.20;;
51244;SDS011;37840;47.562;18.738;2023-08-31T00:37:53;3.70;;;3.30;;
51244;SDS011;37840;47.562;18.738;2023-08-31T00:40:24;4.80;;;3.45;;
51244;SDS011;37840;47.562;18.738;2023-08-31T00:42:50;3.65;;;3.30;;
51244;SDS011;37840;47.562;18.738;2023-08-31T00:45:17;3.72;;;3.20;;
51244;SDS011;37840;47.562;18.738;2023-08-31T00:47:45;3.85;;;3.45;;
51244;SDS011;37840;47.562;18.738;2023-08-31T00:50:13;4.70;;;3.45;;
51244;SDS011;37840;47.562;18.738;2023-08-31T00:52:39;5.20;;;3.55;;
51244;SDS011;37840;47.562;18.738;2023-08-31T00:55:06;3.53;;;3.10;;
51244;SDS011;37840;47.562;18.738;2023-08-31T00:57:33;3.53;;;3.22;;
51244;SDS011;37840;47.562;18.738;2023-08-31T01:00:00;3.72;;;3.37;;
51244;SDS011;37840;47.562;18.738;2023-08-31T01:02:30;3.08;;;2.78;;
51244;SDS011;37840;47.562;18.738;2023-08-31T01:05:13;4.25;;;3.20;;
51244;SDS011;37840;47.562;18.738;2023-08-31T01:08:11;3.20;;;2.90;;
51244;SDS011;37840;47.562;18.738;2023-08-31T01:13:29;3.10;;;2.78;;
51244;SDS011;37840;47.562;18.738;2023-08-31T01:16:00;3.40;;;3.10;;
51244;SDS011;37840;47.562;18.738;2023-08-31T01:18:31;3.20;;;2.90;;
51244;SDS011;37840;47.562;18.738;2023-08-31T01:23:52;4.35;;;3.95;;
51244;SDS011;37840;47.562;18.738;2023-08-31T01:26:19;3.95;;;3.55;;
51244;SDS011;37840;47.562;18.738;2023-08-31T01:28:48;3.47;;;3.17;;
51244;SDS011;37840;47.562;18.738;2023-08-31T01:31:16;4.62;;;3.60;;
51244;SDS011;37840;47.562;18.738;2023-08-31T01:33:42;5.18;;;3.47;;
51244;SDS011;37840;47.562;18.738;2023-08-31T01:38:45;4.10;;;3.70;;
51244;SDS011;37840;47.562;18.738;2023-08-31T01:41:16;5.70;;;3.75;;
51244;SDS011;37840;47.562;18.738;2023-08-31T01:43:45;3.92;;;3.60;;
51244;SDS011;37840;47.562;18.738;2023-08-31T01:46:13;4.57;;;4.10;;
51244;SDS011;37840;47.562;18.738;2023-08-31T01:48:40;5.05;;;3.83;;
51244;SDS011;37840;47.562;18.738;2023-08-31T01:51:10;4.22;;;3.70;;
51244;SDS011;37840;47.562;18.738;2023-08-31T01:53:36;4.18;;;3.12;;
51244;SDS011;37840;47.562;18.738;2023-08-31T01:56:02;4.03;;;3.60;;
51244;SDS011;37840;47.562;18.738;2023-08-31T01:58:28;5.47;;;3.55;;
51244;SDS011;37840;47.562;18.738;2023-08-31T02:00:54;4.53;;;3.47;;
51244;SDS011;37840;47.562;18.738;2023-08-31T02:03:20;4.07;;;3.55;;
51244;SDS011;37840;47.562;18.738;2023-08-31T02:05:46;4.00;;;3.22;;
51244;SDS011;37840;47.562;18.738;2023-08-31T02:08:12;4.82;;;3.70;;
51244;SDS011;37840;47.562;18.738;2023-08-31T02:10:41;5.12;;;3.15;;
51244;SDS011;37840;47.562;18.738;2023-08-31T02:13:07;5.12;;;3.40;;
51244;SDS011;37840;47.562;18.738;2023-08-31T02:15:37;3.47;;;3.17;;
51244;SDS011;37840;47.562;18.738;2023-08-31T02:18:04;3.37;;;3.08;;
51244;SDS011;37840;47.562;18.738;2023-08-31T02:20:30;3.83;;;3.42;;
51244;SDS011;37840;47.562;18.738;2023-08-31T02:22:56;3.83;;;2.97;;
51244;SDS011;37840;47.562;18.738;2023-08-31T02:25:22;3.92;;;3.20;;
51244;SDS011;37840;47.562;18.738;2023-08-31T02:27:48;2.90;;;2.67;;
51244;SDS011;37840;47.562;18.738;2023-08-31T02:30:14;3.67;;;2.87;;
51244;SDS011;37840;47.562;18.738;2023-08-31T02:32:40;3.10;;;2.70;;
51244;SDS011;37840;47.562;18.738;2023-08-31T02:35:06;2.90;;;2.60;;
51244;SDS011;37840;47.562;18.738;2023-08-31T02:37:32;3.08;;;2.62;;
51244;SDS011;37840;47.562;18.738;2023-08-31T02:39:58;2.53;;;2.25;;
51244;SDS011;37840;47.562;18.738;2023-08-31T02:42:24;2.50;;;2.30;;
51244;SDS011;37840;47.562;18.738;2023-08-31T02:44:53;3.47;;;2.60;;
51244;SDS011;37840;47.562;18.738;2023-08-31T02:47:19;2.92;;;2.70;;
51244;SDS011;37840;47.562;18.738;2023-08-31T02:49:45;3.33;;;2.78;;
51244;SDS011;37840;47.562;18.738;2023-08-31T02:52:13;2.75;;;2.55;;
51244;SDS011;37840;47.562;18.738;2023-08-31T02:54:39;3.17;;;2.72;;
51244;SDS011;37840;47.562;18.738;2023-08-31T02:57:05;2.60;;;2.40;;
51244;SDS011;37840;47.562;18.738;2023-08-31T02:59:31;3.00;;;2.72;;
51244;SDS011;37840;47.562;18.738;2023-08-31T03:02:04;2.90;;;2.70;;
51244;SDS011;37840;47.562;18.738;2023-08-31T03:04:30;2.83;;;2.53;;
51244;SDS011;37840;47.562;18.738;2023-08-31T03:06:56;3.58;;;2.70;;
51244;SDS011;37840;47.562;18.738;2023-08-31T03:09:22;3.22;;;2.87;;
51244;SDS011;37840;47.562;18.738;2023-08-31T03:11:48;2.90;;;2.60;;
51244;SDS011;37840;47.562;18.738;2023-08-31T03:14:14;4.28;;;3.25;;
51244;SDS011;37840;47.562;18.738;2023-08-31T03:16:40;3.45;;;2.85;;
51244;SDS011;37840;47.562;18.738;2023-08-31T03:19:06;3.90;;;2.92;;
51244;SDS011;37840;47.562;18.738;2023-08-31T03:21:31;3.42;;;3.12;;
51244;SDS011;37840;47.562;18.738;2023-08-31T03:23:57;3.10;;;2.80;;
51244;SDS011;37840;47.562;18.738;2023-08-31T03:26:23;2.95;;;2.53;;
51244;SDS011;37840;47.562;18.738;2023-08-31T03:28:49;2.75;;;2.35;;
51244;SDS011;37840;47.562;18.738;2023-08-31T03:31:15;3.65;;;2.70;;
51244;SDS011;37840;47.562;18.738;2023-08-31T03:33:41;4.12;;;2.55;;
51244;SDS011;37840;47.562;18.738;2023-08-31T03:36:07;2.53;;;2.33;;
51244;SDS011;37840;47.562;18.738;2023-08-31T03:38:33;2.75;;;2.50;;
51244;SDS011;37840;47.562;18.738;2023-08-31T03:41:06;2.83;;;2.50;;
51244;SDS011;37840;47.562;18.738;2023-08-31T03:43:32;2.42;;;2.22;;
51244;SDS011;37840;47.562;18.738;2023-08-31T03:45:58;2.53;;;2.33;;
51244;SDS011;37840;47.562;18.738;2023-08-31T03:48:24;2.58;;;2.20;;
51244;SDS011;37840;47.562;18.738;2023-08-31T03:50:51;3.33;;;3.03;;
51244;SDS011;37840;47.562;18.738;2023-08-31T03:53:18;2.90;;;2.60;;
51244;SDS011;37840;47.562;18.738;2023-08-31T03:55:44;2.58;;;2.37;;
51244;SDS011;37840;47.562;18.738;2023-08-31T03:58:10;3.60;;;2.90;;
51244;SDS011;37840;47.562;18.738;2023-08-31T04:00:37;3.05;;;2.78;;
51244;SDS011;37840;47.562;18.738;2023-08-31T04:03:04;3.30;;;3.00;;
51244;SDS011;37840;47.562;18.738;2023-08-31T04:05:33;3.05;;;2.75;;
51244;SDS011;37840;47.562;18.738;2023-08-31T04:08:00;3.22;;;2.92;;
51244;SDS011;37840;47.562;18.738;2023-08-31T04:10:26;3.85;;;3.10;;
51244;SDS011;37840;47.562;18.738;2023-08-31T04:12:53;3.97;;;3.25;;
51244;SDS011;37840;47.562;18.738;2023-08-31T04:15:18;4.37;;;3.72;;
51244;SDS011;37840;47.562;18.738;2023-08-31T04:17:44;3.50;;;3.20;;
51244;SDS011;37840;47.562;18.738;2023-08-31T04:20:10;5.37;;;3.22;;
51244;SDS011;37840;47.562;18.738;2023-08-31T04:22:36;4.22;;;3.40;;
51244;SDS011;37840;47.562;18.738;2023-08-31T04:25:03;4.93;;;3.22;;
51244;SDS011;37840;47.562;18.738;2023-08-31T04:27:29;4.65;;;3.53;;
51244;SDS011;37840;47.562;18.738;2023-08-31T04:30:01;5.00;;;4.00;;
51244;SDS011;37840;47.562;18.738;2023-08-31T04:32:28;5.60;;;4.10;;
51244;SDS011;37840;47.562;18.738;2023-08-31T04:34:54;5.70;;;4.12;;
51244;SDS011;37840;47.562;18.738;2023-08-31T04:37:20;5.30;;;4.78;;
51244;SDS011;37840;47.562;18.738;2023-08-31T04:39:47;7.25;;;5.25;;
51244;SDS011;37840;47.562;18.738;2023-08-31T04:42:13;5.78;;;4.30;;
51244;SDS011;37840;47.562;18.738;2023-08-31T04:44:39;4.75;;;3.85;;
51244;SDS011;37840;47.562;18.738;2023-08-31T04:47:05;4.78;;;3.72;;
51244;SDS011;37840;47.562;18.738;2023-08-31T04:49:31;5.43;;;3.67;;
51244;SDS011;37840;47.562;18.738;2023-08-31T04:51:57;4.15;;;3.55;;
51244;SDS011;37840;47.562;18.738;2023-08-31T04:54:23;3.95;;;3.53;;
51244;SDS011;37840;47.562;18.738;2023-08-31T04:56:49;5.03;;;3.75;;
51244;SDS011;37840;47.562;18.738;2023-08-31T04:59:15;7.50;;;4.10;;
51244;SDS011;37840;47.562;18.738;2023-08-31T05:01:40;4.22;;;3.08;;
51244;SDS011;37840;47.562;18.738;2023-08-31T05:04:06;4.00;;;3.00;;
51244;SDS011;37840;47.562;18.738;2023-08-31T05:06:32;4.45;;;3.30;;
51244;SDS011;37840;47.562;18.738;2023-08-31T05:08:58;3.22;;;2.92;;
51244;SDS011;37840;47.562;18.738;2023-08-31T05:11:24;3.65;;;3.20;;
51244;SDS011;37840;47.562;18.738;2023-08-31T05:13:50;3.47;;;2.90;;
51244;SDS011;37840;47.562;18.738;2023-08-31T05:16:16;5.28;;;3.10;;
51244;SDS011;37840;47.562;18.738;2023-08-31T05:18:42;3.60;;;3.17;;
51244;SDS011;37840;47.562;18.738;2023-08-31T05:21:08;2.62;;;2.42;;
51244;SDS011;37840;47.562;18.738;2023-08-31T05:23:34;5.15;;;3.08;;
51244;SDS011;37840;47.562;18.738;2023-08-31T05:26:00;5.57;;;2.95;;
51244;SDS011;37840;47.562;18.738;2023-08-31T05:28:27;3.97;;;3.20;;
51244;SDS011;37840;47.562;18.738;2023-08-31T05:30:54;3.92;;;3.25;;
51244;SDS011;37840;47.562;18.738;2023-08-31T05:33:21;3.15;;;2.85;;
51244;SDS011;37840;47.562;18.738;2023-08-31T05:35:48;3.60;;;3.30;;
51244;SDS011;37840;47.562;18.738;2023-08-31T05:38:14;5.25;;;3.70;;
51244;SDS011;37840;47.562;18.738;2023-08-31T05:40:40;4.18;;;3.65;;
51244;SDS011;37840;47.562;18.738;2023-08-31T05:43:11;4.57;;;3.85;;
51244;SDS011;37840;47.562;18.738;2023-08-31T05:45:38;4.30;;;3.90;;
51244;SDS011;37840;47.562;18.738;2023-08-31T05:48:04;3.80;;;3.40;;
51244;SDS011;37840;47.562;18.738;2023-08-31T05:50:30;6.05;;;4.22;;
51244;SDS011;37840;47.562;18.738;2023-08-31T05:52:56;4.57;;;3.90;;
51244;SDS011;37840;47.562;18.738;2023-08-31T05:55:22;4.65;;;3.50;;
51244;SDS011;37840;47.562;18.738;2023-08-31T05:57:48;4.18;;;3.67;;
51244;SDS011;37840;47.562;18.738;2023-08-31T06:00:15;3.97;;;3.45;;
51244;SDS011;37840;47.562;18.738;2023-08-31T06:02:42;4.10;;;3.70;;
51244;SDS011;37840;47.562;18.738;2023-08-31T06:05:10;5.87;;;4.62;;
51244;SDS011;37840;47.562;18.738;2023-08-31T06:07:38;6.15;;;4.57;;
51244;SDS011;37840;47.562;18.738;2023-08-31T06:10:05;5.68;;;4.72;;
51244;SDS011;37840;47.562;18.738;2023-08-31T06:12:31;4.72;;;4.22;;
51244;SDS011;37840;47.562;18.738;2023-08-31T06:14:57;6.15;;;4.30;;
51244;SDS011;37840;47.562;18.738;2023-08-31T06:17:23;4.53;;;3.75;;
51244;SDS011;37840;47.562;18.738;2023-08-31T06:19:49;5.93;;;4.87;;
51244;SDS011;37840;47.562;18.738;2023-08-31T06:22:15;5.07;;;3.85;;
51244;SDS011;37840;47.562;18.738;2023-08-31T06:24:41;4.93;;;4.00;;
51244;SDS011;37840;47.562;18.738;2023-08-31T06:27:07;4.45;;;4.05;;
51244;SDS011;37840;47.562;18.738;2023-08-31T06:29:33;4.62;;;4.07;;
51244;SDS011;37840;47.562;18.738;2023-08-31T06:31:59;5.03;;;3.90;;
51244;SDS011;37840;47.562;18.738;2023-08-31T06:34:25;4.45;;;3.92;;
51244;SDS011;37840;47.562;18.738;2023-08-31T06:36:51;4.03;;;3.62;;
51244;SDS011;37840;47.562;18.738;2023-08-31T06:39:17;5.80;;;4.10;;
51244;SDS011;37840;47.562;18.738;2023-08-31T06:41:43;4.85;;;4.32;;
51244;SDS011;37840;47.562;18.738;2023-08-31T06:44:09;4.78;;;3.80;;
51244;SDS011;37840;47.562;18.738;2023-08-31T06:46:35;4.93;;;4.43;;
51244;SDS011;37840;47.562;18.738;2023-08-31T06:49:04;4.68;;;3.95;;
51244;SDS011;37840;47.562;18.738;2023-08-31T06:51:31;4.30;;;3.70;;
51244;SDS011;37840;47.562;18.738;2023-08-31T06:53:58;4.37;;;3.53;;
51244;SDS011;37840;47.562;18.738;2023-08-31T06:56:33;4.30;;;3.90;;
51244;SDS011;37840;47.562;18.738;2023-08-31T06:58:59;4.00;;;3.60;;
51244;SDS011;37840;47.562;18.738;2023-08-31T07:01:26;4.35;;;3.97;;
51244;SDS011;37840;47.562;18.738;2023-08-31T07:03:53;4.43;;;3.97;;
51244;SDS011;37840;47.562;18.738;2023-08-31T07:06:19;4.22;;;3.83;;
51244;SDS011;37840;47.562;18.738;2023-08-31T07:08:45;4.40;;;3.40;;
51244;SDS011;37840;47.562;18.738;2023-08-31T07:11:12;4.68;;;3.58;;
51244;SDS011;37840;47.562;18.738;2023-08-31T07:13:39;3.65;;;3.28;;
51244;SDS011;37840;47.562;18.738;2023-08-31T07:16:05;3.17;;;2.75;;
51244;SDS011;37840;47.562;18.738;2023-08-31T07:18:31;3.12;;;2.80;;
51244;SDS011;37840;47.562;18.738;2023-08-31T07:21:00;3.05;;;2.75;;
51244;SDS011;37840;47.562;18.738;2023-08-31T07:23:26;2.60;;;2.25;;
51244;SDS011;37840;47.562;18.738;2023-08-31T07:25:56;3.10;;;2.75;;
51244;SDS011;37840;47.562;18.738;2023-08-31T07:28:23;3.00;;;2.70;;
51244;SDS011;37840;47.562;18.738;2023-08-31T07:30:49;2.53;;;2.28;;
51244;SDS011;37840;47.562;18.738;2023-08-31T07:33:15;2.40;;;2.20;;
51244;SDS011;37840;47.562;18.738;2023-08-31T07:35:41;4.53;;;2.72;;
51244;SDS011;37840;47.562;18.738;2023-08-31T07:38:06;3.85;;;2.50;;
51244;SDS011;37840;47.562;18.738;2023-08-31T07:40:32;2.95;;;2.30;;
51244;SDS011;37840;47.562;18.738;2023-08-31T07:42:58;2.78;;;2.35;;
51244;SDS011;37840;47.562;18.738;2023-08-31T07:45:24;2.78;;;2.50;;
51244;SDS011;37840;47.562;18.738;2023-08-31T07:47:50;3.97;;;2.15;;
51244;SDS011;37840;47.562;18.738;2023-08-31T07:50:16;2.58;;;2.37;;
51244;SDS011;37840;47.562;18.738;2023-08-31T07:52:42;2.50;;;2.30;;
51244;SDS011;37840;47.562;18.738;2023-08-31T07:55:08;2.40;;;2.20;;
51244;SDS011;37840;47.562;18.738;2023-08-31T07:57:34;2.40;;;2.17;;
51244;SDS011;37840;47.562;18.738;2023-08-31T08:00:00;3.30;;;2.35;;
51244;SDS011;37840;47.562;18.738;2023-08-31T08:02:26;3.50;;;1.90;;
51244;SDS011;37840;47.562;18.738;2023-08-31T08:04:52;3.00;;;1.92;;
51244;SDS011;37840;47.562;18.738;2023-08-31T08:07:17;2.15;;;1.65;;
51244;SDS011;37840;47.562;18.738;2023-08-31T08:09:43;4.22;;;2.08;;
51244;SDS011;37840;47.562;18.738;2023-08-31T08:12:09;2.30;;;2.00;;
51244;SDS011;37840;47.562;18.738;2023-08-31T08:14:35;3.12;;;1.92;;
51244;SDS011;37840;47.562;18.738;2023-08-31T08:17:01;2.50;;;1.60;;
51244;SDS011;37840;47.562;18.738;2023-08-31T08:19:27;2.53;;;1.75;;
51244;SDS011;37840;47.562;18.738;2023-08-31T08:21:53;1.70;;;1.60;;
51244;SDS011;37840;47.562;18.738;2023-08-31T08:24:19;2.33;;;1.67;;
51244;SDS011;37840;47.562;18.738;2023-08-31T08:26:45;1.70;;;1.55;;
51244;SDS011;37840;47.562;18.738;2023-08-31T08:29:10;1.73;;;1.58;;
51244;SDS011;37840;47.562;18.738;2023-08-31T08:31:36;3.25;;;1.80;;
51244;SDS011;37840;47.562;18.738;2023-08-31T08:34:02;2.28;;;1.90;;
51244;SDS011;37840;47.562;18.738;2023-08-31T08:36:29;2.22;;;1.98;;
51244;SDS011;37840;47.562;18.738;2023-08-31T08:38:55;3.58;;;1.85;;
51244;SDS011;37840;47.562;18.738;2023-08-31T08:41:22;2.55;;;1.58;;
51244;SDS011;37840;47.562;18.738;2023-08-31T08:43:50;1.77;;;1.50;;
51244;SDS011;37840;47.562;18.738;2023-08-31T08:46:18;1.67;;;1.40;;
51244;SDS011;37840;47.562;18.738;2023-08-31T08:48:44;1.92;;;1.62;;
51244;SDS011;37840;47.562;18.738;2023-08-31T08:51:12;2.20;;;1.73;;
51244;SDS011;37840;47.562;18.738;2023-08-31T08:53:41;4.12;;;1.45;;
51244;SDS011;37840;47.562;18.738;2023-08-31T08:56:08;2.92;;;2.00;;
51244;SDS011;37840;47.562;18.738;2023-08-31T08:58:34;1.98;;;1.40;;
51244;SDS011;37840;47.562;18.738;2023-08-31T09:01:00;2.55;;;1.85;;
51244;SDS011;37840;47.562;18.738;2023-08-31T09:03:27;2.15;;;1.80;;
51244;SDS011;37840;47.562;18.738;2023-08-31T09:05:53;1.67;;;1.55;;
51244;SDS011;37840;47.562;18.738;2023-08-31T09:08:26;3.10;;;1.65;;
51244;SDS011;37840;47.562;18.738;2023-08-31T09:10:54;1.77;;;1.60;;
51244;SDS011;37840;47.562;18.738;2023-08-31T09:13:25;1.73;;;1.50;;
51244;SDS011;37840;47.562;18.738;2023-08-31T09:15:54;1.70;;;1.42;;
51244;SDS011;37840;47.562;18.738;2023-08-31T09:18:24;1.40;;;1.27;;
51244;SDS011;37840;47.562;18.738;2023-08-31T09:20:52;2.25;;;1.50;;
51244;SDS011;37840;47.562;18.738;2023-08-31T09:23:19;1.77;;;1.48;;
51244;SDS011;37840;47.562;18.738;2023-08-31T09:25:46;1.83;;;1.60;;
51244;SDS011;37840;47.562;18.738;2023-08-31T09:28:18;2.40;;;1.92;;
51244;SDS011;37840;47.562;18.738;2023-08-31T09:30:45;2.40;;;1.60;;
51244;SDS011;37840;47.562;18.738;2023-08-31T09:33:13;1.85;;;1.30;;
51244;SDS011;37840;47.562;18.738;2023-08-31T09:35:51;2.08;;;1.42;;
51244;SDS011;37840;47.562;18.738;2023-08-31T09:38:27;2.30;;;1.35;;
51244;SDS011;37840;47.562;18.738;2023-08-31T09:41:02;1.95;;;1.52;;
51244;SDS011;37840;47.562;18.738;2023-08-31T09:43:30;1.80;;;1.40;;
51244;SDS011;37840;47.562;18.738;2023-08-31T09:45:56;1.42;;;1.20;;
51244;SDS011;37840;47.562;18.738;2023-08-31T09:48:23;3.53;;;1.35;;
51244;SDS011;37840;47.562;18.738;2023-08-31T09:50:49;1.87;;;1.12;;
51244;SDS011;37840;47.562;18.738;2023-08-31T09:53:17;2.08;;;1.12;;
51244;SDS011;37840;47.562;18.738;2023-08-31T09:55:46;1.25;;;1.15;;
51244;SDS011;37840;47.562;18.738;2023-08-31T10:00:45;2.37;;;1.30;;
51244;SDS011;37840;47.562;18.738;2023-08-31T10:03:12;1.33;;;1.08;;
51244;SDS011;37840;47.562;18.738;2023-08-31T10:05:44;1.50;;;1.17;;
51244;SDS011;37840;47.562;18.738;2023-08-31T10:08:11;1.67;;;1.25;;
51244;SDS011;37840;47.562;18.738;2023-08-31T10:10:38;2.03;;;1.55;;
51244;SDS011;37840;47.562;18.738;2023-08-31T10:13:05;2.30;;;1.30;;
51244;SDS011;37840;47.562;18.738;2023-08-31T10:15:32;1.42;;;1.33;;
51244;SDS011;37840;47.562;18.738;2023-08-31T10:18:00;1.87;;;1.10;;
51244;SDS011;37840;47.562;18.738;2023-08-31T10:20:26;1.70;;;1.33;;
51244;SDS011;37840;47.562;18.738;2023-08-31T10:25:23;1.40;;;1.25;;
51244;SDS011;37840;47.562;18.738;2023-08-31T10:27:51;1.90;;;1.65;;
51244;SDS011;37840;47.562;18.738;2023-08-31T10:38:16;1.52;;;1.20;;
51244;SDS011;37840;47.562;18.738;2023-08-31T10:43:44;1.98;;;1.23;;
51244;SDS011;37840;47.562;18.738;2023-08-31T10:46:16;2.85;;;1.15;;
51244;SDS011;37840;47.562;18.738;2023-08-31T10:51:17;2.28;;;1.48;;
51244;SDS011;37840;47.562;18.738;2023-08-31T10:53:46;1.37;;;1.27;;
51244;SDS011;37840;47.562;18.738;2023-08-31T10:56:15;1.80;;;1.10;;
51244;SDS011;37840;47.562;18.738;2023-08-31T10:58:42;1.50;;;1.20;;
51244;SDS011;37840;47.562;18.738;2023-08-31T11:01:08;1.73;;;1.40;;
51244;SDS011;37840;47.562;18.738;2023-08-31T11:03:52;1.70;;;1.50;;
51244;SDS011;37840;47.562;18.738;2023-08-31T11:06:23;1.48;;;1.37;;
51244;SDS011;37840;47.562;18.738;2023-08-31T11:08:50;2.25;;;1.48;;
51244;SDS011;37840;47.562;18.738;2023-08-31T11:11:19;1.75;;;1.58;;
51244;SDS011;37840;47.562;18.738;2023-08-31T11:13:45;1.87;;;1.50;;
51244;SDS011;37840;47.562;18.738;2023-08-31T11:16:11;1.95;;;1.77;;
51244;SDS011;37840;47.562;18.738;2023-08-31T11:18:37;2.40;;;1.70;;
51244;SDS011;37840;47.562;18.738;2023-08-31T11:21:03;2.20;;;1.80;;
51244;SDS011;37840;47.562;18.738;2023-08-31T11:23:31;2.05;;;1.58;;
51244;SDS011;37840;47.562;18.738;2023-08-31T11:25:57;2.25;;;1.50;;
51244;SDS011;37840;47.562;18.738;2023-08-31T11:28:23;2.10;;;1.70;;
51244;SDS011;37840;47.562;18.738;2023-08-31T11:30:49;2.08;;;1.67;;
51244;SDS011;37840;47.562;18.738;2023-08-31T11:33:15;2.50;;;1.62;;
51244;SDS011;37840;47.562;18.738;2023-08-31T11:35:42;1.83;;;1.58;;
51244;SDS011;37840;47.562;18.738;2023-08-31T11:38:10;2.20;;;1.60;;
51244;SDS011;37840;47.562;18.738;2023-08-31T11:40:36;2.25;;;1.80;;
51244;SDS011;37840;47.562;18.738;2023-08-31T11:43:21;2.33;;;1.50;;
51244;SDS011;37840;47.562;18.738;2023-08-31T11:45:47;1.92;;;1.52;;
51244;SDS011;37840;47.562;18.738;2023-08-31T11:48:13;1.92;;;1.73;;
51244;SDS011;37840;47.562;18.738;2023-08-31T11:50:39;1.85;;;1.65;;
51244;SDS011;37840;47.562;18.738;2023-08-31T11:53:07;2.62;;;1.80;;
51244;SDS011;37840;47.562;18.738;2023-08-31T11:55:33;1.98;;;1.48;;
51244;SDS011;37840;47.562;18.738;2023-08-31T11:57:59;3.97;;;1.62;;
51244;SDS011;37840;47.562;18.738;2023-08-31T12:00:25;2.70;;;1.75;;
51244;SDS011;37840;47.562;18.738;2023-08-31T12:03:00;1.87;;;1.73;;
51244;SDS011;37840;47.562;18.738;2023-08-31T12:05:27;2.78;;;1.62;;
51244;SDS011;37840;47.562;18.738;2023-08-31T12:07:54;2.00;;;1.30;;
51244;SDS011;37840;47.562;18.738;2023-08-31T12:10:23;1.48;;;1.30;;
51244;SDS011;37840;47.562;18.738;2023-08-31T12:12:50;1.50;;;1.30;;
51244;SDS011;37840;47.562;18.738;2023-08-31T12:15:18;1.73;;;1.35;;
51244;SDS011;37840;47.562;18.738;2023-08-31T12:17:47;1.40;;;1.17;;
51244;SDS011;37840;47.562;18.738;2023-08-31T12:20:24;1.50;;;1.20;;
51244;SDS011;37840;47.562;18.738;2023-08-31T12:22:50;1.60;;;1.48;;
51244;SDS011;37840;47.562;18.738;2023-08-31T12:25:22;1.52;;;1.30;;
51244;SDS011;37840;47.562;18.738;2023-08-31T12:27:48;1.85;;;1.35;;
51244;SDS011;37840;47.562;18.738;2023-08-31T12:30:15;3.28;;;1.40;;
51244;SDS011;37840;47.562;18.738;2023-08-31T12:32:41;1.50;;;1.40;;
51244;SDS011;37840;47.562;18.738;2023-08-31T12:35:07;1.92;;;1.60;;
51244;SDS011;37840;47.562;18.738;2023-08-31T12:37:35;1.40;;;1.20;;
51244;SDS011;37840;47.562;18.738;2023-08-31T12:40:01;3.20;;;1.87;;
51244;SDS011;37840;47.562;18.738;2023-08-31T12:42:30;2.65;;;1.50;;
51244;SDS011;37840;47.562;18.738;2023-08-31T12:44:56;1.98;;;1.08;;
51244;SDS011;37840;47.562;18.738;2023-08-31T12:47:22;2.75;;;1.70;;
51244;SDS011;37840;47.562;18.738;2023-08-31T12:49:48;2.85;;;1.50;;
51244;SDS011;37840;47.562;18.738;2023-08-31T12:52:13;1.77;;;1.25;;
51244;SDS011;37840;47.562;18.738;2023-08-31T12:54:39;6.22;;;1.40;;
51244;SDS011;37840;47.562;18.738;2023-08-31T12:57:06;1.98;;;1.30;;
51244;SDS011;37840;47.562;18.738;2023-08-31T12:59:32;3.40;;;1.50;;
51244;SDS011;37840;47.562;18.738;2023-08-31T13:01:57;1.73;;;1.20;;
51244;SDS011;37840;47.562;18.738;2023-08-31T13:04:24;1.35;;;1.15;;
51244;SDS011;37840;47.562;18.738;2023-08-31T13:06:50;1.42;;;1.12;;
51244;SDS011;37840;47.562;18.738;2023-08-31T13:09:16;1.55;;;1.30;;
51244;SDS011;37840;47.562;18.738;2023-08-31T13:11:42;1.62;;;1.35;;
51244;SDS011;37840;47.562;18.738;2023-08-31T13:14:08;1.40;;;1.10;;
51244;SDS011;37840;47.562;18.738;2023-08-31T13:16:33;1.92;;;1.10;;
51244;SDS011;37840;47.562;18.738;2023-08-31T13:19:02;1.30;;;1.10;;
51244;SDS011;37840;47.562;18.738;2023-08-31T13:21:28;1.83;;;1.37;;
51244;SDS011;37840;47.562;18.738;2023-08-31T13:23:54;1.65;;;1.30;;
51244;SDS011;37840;47.562;18.738;2023-08-31T13:26:20;1.40;;;1.02;;
51244;SDS011;37840;47.562;18.738;2023-08-31T13:28:46;1.42;;;1.17;;
51244;SDS011;37840;47.562;18.738;2023-08-31T13:31:12;2.50;;;1.45;;
51244;SDS011;37840;47.562;18.738;2023-08-31T13:33:38;1.77;;;1.50;;
51244;SDS011;37840;47.562;18.738;2023-08-31T13:36:04;2.30;;;1.42;;
51244;SDS011;37840;47.562;18.738;2023-08-31T13:38:30;1.70;;;1.10;;
51244;SDS011;37840;47.562;18.738;2023-08-31T13:40:56;2.37;;;1.50;;
51244;SDS011;37840;47.562;18.738;2023-08-31T13:43:22;1.40;;;1.12;;
51244;SDS011;37840;47.562;18.738;2023-08-31T13:45:49;1.45;;;1.20;;
51244;SDS011;37840;47.562;18.738;2023-08-31T13:48:14;1.80;;;1.30;;
51244;SDS011;37840;47.562;18.738;2023-08-31T13:50:40;3.87;;;1.95;;
51244;SDS011;37840;47.562;18.738;2023-08-31T13:53:06;1.60;;;1.10;;
51244;SDS011;37840;47.562;18.738;2023-08-31T13:55:32;1.90;;;1.25;;
51244;SDS011;37840;47.562;18.738;2023-08-31T13:58:06;1.92;;;1.30;;
51244;SDS011;37840;47.562;18.738;2023-08-31T14:00:33;1.67;;;1.50;;
51244;SDS011;37840;47.562;18.738;2023-08-31T14:03:00;3.28;;;1.30;;
51244;SDS011;37840;47.562;18.738;2023-08-31T14:05:29;1.45;;;1.23;;
51244;SDS011;37840;47.562;18.738;2023-08-31T14:07:56;2.62;;;1.30;;
51244;SDS011;37840;47.562;18.738;2023-08-31T14:10:26;1.80;;;1.20;;
51244;SDS011;37840;47.562;18.738;2023-08-31T14:12:52;1.37;;;1.15;;
51244;SDS011;37840;47.562;18.738;2023-08-31T14:15:19;2.45;;;1.30;;
51244;SDS011;37840;47.562;18.738;2023-08-31T14:17:44;3.28;;;1.48;;
51244;SDS011;37840;47.562;18.738;2023-08-31T14:20:10;3.35;;;1.40;;
51244;SDS011;37840;47.562;18.738;2023-08-31T14:22:37;1.95;;;1.55;;
51244;SDS011;37840;47.562;18.738;2023-08-31T14:25:09;2.10;;;1.33;;
51244;SDS011;37840;47.562;18.738;2023-08-31T14:27:36;2.70;;;1.65;;
51244;SDS011;37840;47.562;18.738;2023-08-31T14:30:02;1.87;;;1.10;;
51244;SDS011;37840;47.562;18.738;2023-08-31T14:32:29;2.08;;;1.50;;
51244;SDS011;37840;47.562;18.738;2023-08-31T14:34:54;2.90;;;1.45;;
51244;SDS011;37840;47.562;18.738;2023-08-31T14:37:21;3.03;;;1.33;;
51244;SDS011;37840;47.562;18.738;2023-08-31T14:39:47;1.40;;;1.00;;
51244;SDS011;37840;47.562;18.738;2023-08-31T14:42:13;1.52;;;1.23;;
51244;SDS011;37840;47.562;18.738;2023-08-31T14:44:40;1.98;;;1.33;;
51244;SDS011;37840;47.562;18.738;2023-08-31T14:47:06;4.15;;;1.35;;
51244;SDS011;37840;47.562;18.738;2023-08-31T14:49:32;1.70;;;1.40;;
51244;SDS011;37840;47.562;18.738;2023-08-31T14:51:59;1.90;;;1.12;;
51244;SDS011;37840;47.562;18.738;2023-08-31T14:54:30;1.30;;;1.00;;
51244;SDS011;37840;47.562;18.738;2023-08-31T14:56:57;3.50;;;1.30;;
51244;SDS011;37840;47.562;18.738;2023-08-31T14:59:23;1.90;;;1.50;;